Time;durP1;ratioP1;P1;durP2;ratioP2;P2;SDS_P1;SDS_P2;PMS_P1;PMS_P2;Temp;Humidity;BMP_temperature;BMP_pressure;BME280_temperature;BME280_humidity;BME280_pressure;Samples;Min_cycle;Max_cycle;Signal;HPM_P1;HPM_P2
2023/10/11 00:01:04;;;;;;;17.00;10.60;;;;;;;12.12;100.00;100630.20;105081;1263;69522;-61
2023/10/11 00:03:51;;;;;;;15.60;10.40;;;;;;;12.13;100.00;100636.48;105039;1261;73958;-60
2023/10/11 00:06:21;;;;;;;15.80;11.20;;;;;;;12.14;100.00;100635.56;105116;1260;81749;-61
2023/10/11 00:08:50;;;;;;;14.80;11.40;;;;;;;12.15;100.00;100636.92;105055;1264;71954;-61
2023/10/11 00:11:24;;;;;;;18.50;11.90;;;;;;;12.17;100.00;100631.96;105059;1263;69148;-61
2023/10/11 00:13:54;;;;;;;18.70;11.90;;;;;;;12.16;100.00;100621.13;105049;1263;69314;-61
2023/10/11 00:16:22;;;;;;;18.40;11.70;;;;;;;12.14;100.00;100620.15;105071;1263;73995;-61
2023/10/11 00:18:51;;;;;;;16.00;11.90;;;;;;;12.12;100.00;100613.43;104959;1263;82091;-61
2023/10/11 00:21:35;;;;;;;18.40;12.10;;;;;;;12.11;100.00;100607.31;105041;1263;71921;-61
2023/10/11 00:24:04;;;;;;;19.70;13.00;;;;;;;12.11;100.00;100601.02;105061;1271;69200;-61
2023/10/11 00:26:34;;;;;;;21.20;12.90;;;;;;;12.11;100.00;100600.67;105073;1263;69125;-61
2023/10/11 00:29:04;;;;;;;16.80;11.40;;;;;;;12.10;100.00;100599.80;105036;1262;75031;-61
2023/10/11 00:31:32;;;;;;;17.20;12.20;;;;;;;12.10;100.00;100599.63;105041;1261;81878;-61
2023/10/11 00:34:03;;;;;;;18.10;13.40;;;;;;;12.11;100.00;100595.05;105082;1259;71656;-61
2023/10/11 00:36:33;;;;;;;16.10;11.90;;;;;;;12.12;100.00;100602.19;105039;1261;69218;-60
2023/10/11 00:39:01;;;;;;;14.90;11.50;;;;;;;12.12;100.00;100597.62;105084;1263;69211;-61
2023/10/11 00:41:32;;;;;;;15.20;11.40;;;;;;;12.14;100.00;100593.01;105075;1262;75069;-61
2023/10/11 00:44:02;;;;;;;17.20;12.70;;;;;;;12.14;100.00;100591.41;105046;1271;81840;-61
2023/10/11 00:47:19;;;;;;;16.20;12.10;;;;;;;12.15;100.00;100590.70;105051;1271;71848;-61
2023/10/11 00:49:21;;;;;;;16.50;11.60;;;;;;;12.15;100.00;100588.06;104940;1263;69131;-61
2023/10/11 00:51:49;;;;;;;18.70;12.10;;;;;;;12.15;100.00;100589.61;105008;1262;69213;-61
2023/10/11 00:54:18;;;;;;;17.50;12.00;;;;;;;12.15;100.00;100591.55;105132;1263;73906;-61
2023/10/11 00:56:49;;;;;;;17.80;11.30;;;;;;;12.16;100.00;100585.56;105033;1263;82039;-61
2023/10/11 00:59:21;;;;;;;15.00;10.40;;;;;;;12.16;100.00;100587.82;105005;1260;71755;-61
2023/10/11 01:01:55;;;;;;;17.30;12.00;;;;;;;12.16;100.00;100580.29;104999;1264;69198;-61
2023/10/11 01:04:33;;;;;;;15.60;11.10;;;;;;;12.16;100.00;100587.64;105019;1263;69179;-61
2023/10/11 01:07:02;;;;;;;16.70;12.00;;;;;;;12.18;100.00;100595.11;105057;1263;74161;-61
2023/10/11 01:09:30;;;;;;;16.60;11.20;;;;;;;12.18;100.00;100596.50;105020;1263;81728;-61
2023/10/11 01:11:59;;;;;;;16.30;11.70;;;;;;;12.18;100.00;100591.58;105027;1259;70824;-61
2023/10/11 01:14:28;;;;;;;15.80;11.20;;;;;;;12.19;100.00;100581.05;105092;1262;69110;-62
2023/10/11 01:16:56;;;;;;;15.30;11.50;;;;;;;12.20;100.00;100577.71;105021;1263;69218;-60
2023/10/11 01:19:26;;;;;;;18.60;11.40;;;;;;;12.22;100.00;100582.14;105044;1263;75700;-60
2023/10/11 01:21:59;;;;;;;15.70;11.80;;;;;;;12.24;100.00;100581.02;105009;1262;81169;-60
2023/10/11 01:24:29;;;;;;;17.90;11.00;;;;;;;12.25;100.00;100578.53;105068;1261;72107;-60
2023/10/11 01:26:57;;;;;;;17.40;11.40;;;;;;;12.25;100.00;100583.80;105055;1260;69208;-60
2023/10/11 01:29:25;;;;;;;15.60;11.20;;;;;;;12.24;100.00;100575.23;105079;1262;69183;-60
2023/10/11 01:31:53;;;;;;;17.90;11.70;;;;;;;12.24;100.00;100576.30;105054;1263;72639;-60
2023/10/11 01:34:27;;;;;;;21.70;13.30;;;;;;;12.24;100.00;100574.17;104988;1270;81596;-60
2023/10/11 01:36:55;;;;;;;15.40;11.10;;;;;;;12.22;100.00;100572.52;105086;1263;71747;-60
2023/10/11 01:39:23;;;;;;;17.70;10.90;;;;;;;12.20;100.00;100571.72;104983;1264;69265;-60
2023/10/11 01:41:58;;;;;;;15.40;11.70;;;;;;;12.18;100.00;100567.42;105148;1261;69682;-60
2023/10/11 01:44:27;;;;;;;14.40;10.70;;;;;;;12.17;100.00;100568.88;105088;1261;73861;-60
2023/10/11 01:46:56;;;;;;;18.70;12.00;;;;;;;12.16;100.00;100567.16;105089;1264;81469;-60
2023/10/11 01:49:24;;;;;;;15.40;11.80;;;;;;;12.14;100.00;100566.02;104925;1260;71833;-60
2023/10/11 01:51:54;;;;;;;14.80;11.40;;;;;;;12.12;100.00;100564.19;105069;1263;69125;-60
2023/10/11 01:54:23;;;;;;;17.50;11.70;;;;;;;12.10;100.00;100559.89;105155;1264;69167;-60
2023/10/11 01:56:52;;;;;;;16.90;12.00;;;;;;;12.09;100.00;100561.16;105038;1263;73574;-62
2023/10/11 01:59:21;;;;;;;15.60;11.30;;;;;;;12.07;100.00;100557.55;104991;1264;81573;-60
2023/10/11 02:01:59;;;;;;;17.80;12.10;;;;;;;12.04;100.00;100561.50;104986;1261;71790;-60
2023/10/11 02:04:29;;;;;;;18.80;11.70;;;;;;;12.04;100.00;100565.17;105065;1264;69184;-61
2023/10/11 02:06:57;;;;;;;16.80;11.70;;;;;;;12.03;100.00;100568.58;105068;1261;69107;-60
2023/10/11 02:09:25;;;;;;;15.50;11.90;;;;;;;12.01;100.00;100564.27;105024;1260;74027;-60
2023/10/11 02:11:54;;;;;;;20.50;11.70;;;;;;;12.00;100.00;100563.96;105047;1263;81749;-60
2023/10/11 02:14:24;;;;;;;;;;;;;;;11.99;100.00;100563.13;105084;1263;71400;-60
2023/10/11 02:16:53;;;;;;;15.30;11.10;;;;;;;11.98;100.00;100561.77;104988;1260;69185;-60
2023/10/11 02:19:24;;;;;;;16.70;12.10;;;;;;;11.97;100.00;100560.58;105092;1262;69225;-60
2023/10/11 02:21:53;;;;;;;15.70;11.30;;;;;;;11.98;100.00;100560.04;105067;1260;74686;-60
2023/10/11 02:24:25;;;;;;;16.20;11.80;;;;;;;11.99;100.00;100557.16;105071;1264;81185;-60
2023/10/11 02:26:55;;;;;;;15.40;11.00;;;;;;;12.00;100.00;100556.95;105036;1261;70775;-60
2023/10/11 02:29:28;;;;;;;14.90;11.20;;;;;;;12.00;100.00;100554.86;105000;1262;69470;-60
2023/10/11 02:31:58;;;;;;;16.40;11.00;;;;;;;11.99;100.00;100555.58;105005;1262;69456;-60
2023/10/11 02:34:27;;;;;;;16.00;10.00;;;;;;;11.98;100.00;100555.48;105000;1263;73568;-60
2023/10/11 02:36:56;;;;;;;14.10;10.70;;;;;;;11.95;100.00;100550.66;105077;1262;81185;-60
2023/10/11 02:39:43;;;;;;;15.10;11.10;;;;;;;11.94;100.00;100550.56;105055;1260;72154;-60
2023/10/11 02:42:19;;;;;;;15.30;10.70;;;;;;;11.92;100.00;100545.55;105042;1261;69086;-60
2023/10/11 02:44:48;;;;;;;13.60;10.20;;;;;;;11.91;100.00;100545.95;105069;1258;69193;-60
2023/10/11 02:47:22;;;;;;;14.90;10.60;;;;;;;11.91;100.00;100548.73;105086;1262;74115;-60
2023/10/11 02:49:53;;;;;;;14.90;10.20;;;;;;;11.91;100.00;100550.67;105043;1261;80353;-60
2023/10/11 02:52:29;;;;;;;;;;;;;;;11.89;100.00;100551.61;105058;1260;72884;-60
2023/10/11 02:54:59;;;;;;;15.10;10.30;;;;;;;11.86;100.00;100549.11;105058;1261;69285;-60
2023/10/11 02:57:27;;;;;;;14.70;10.60;;;;;;;11.81;100.00;100544.00;105099;1263;69136;-60
2023/10/11 02:59:56;;;;;;;15.50;10.50;;;;;;;11.80;100.00;100543.55;105042;1260;73445;-60
2023/10/11 03:02:29;;;;;;;16.80;10.90;;;;;;;11.81;100.00;100544.38;105069;1261;82626;-60
2023/10/11 03:05:01;;;;;;;16.70;11.10;;;;;;;11.83;100.00;100542.20;105026;1260;71480;-60
2023/10/11 03:07:33;;;;;;;15.40;10.80;;;;;;;11.84;100.00;100539.68;105059;1261;69133;-60
2023/10/11 03:10:03;;;;;;;13.10;10.10;;;;;;;11.83;100.00;100538.84;105069;1260;69176;-60
2023/10/11 03:12:33;;;;;;;13.40;10.00;;;;;;;11.83;100.00;100539.55;105114;1262;74282;-60
2023/10/11 03:15:19;;;;;;;16.10;10.20;;;;;;;11.82;100.00;100538.38;105065;1260;82113;-60
2023/10/11 03:17:52;;;;;;;17.80;11.80;;;;;;;11.82;100.00;100538.04;105027;1260;71997;-60
2023/10/11 03:20:28;;;;;;;14.60;10.60;;;;;;;11.82;100.00;100533.31;105047;1263;69191;-60
2023/10/11 03:23:03;;;;;;;16.10;10.90;;;;;;;11.82;100.00;100528.38;105060;1262;69212;-60
2023/10/11 03:25:34;;;;;;;15.40;11.40;;;;;;;11.83;100.00;100528.72;105062;1261;73076;-60
2023/10/11 03:28:03;;;;;;;14.00;11.00;;;;;;;11.82;100.00;100522.09;105005;1262;81781;-60
2023/10/11 03:30:35;;;;;;;17.70;10.30;;;;;;;11.82;100.00;100524.02;105024;1263;71705;-60
2023/10/11 03:33:06;;;;;;;15.00;10.30;;;;;;;11.80;100.00;100524.42;105046;1260;69298;-60
2023/10/11 03:35:38;;;;;;;13.50;9.60;;;;;;;11.82;100.00;100524.70;105047;1261;69189;-60
2023/10/11 03:38:17;;;;;;;14.40;9.40;;;;;;;11.80;100.00;100525.30;105104;1263;73933;-60
2023/10/11 03:40:54;;;;;;;13.50;9.40;;;;;;;11.78;100.00;100521.75;105057;1262;81619;-60
2023/10/11 03:43:26;;;;;;;13.30;9.10;;;;;;;11.75;100.00;100522.01;105051;1260;71953;-60
2023/10/11 03:45:59;;;;;;;13.90;9.10;;;;;;;11.70;100.00;100521.16;105046;1262;69156;-60
2023/10/11 03:48:28;;;;;;;10.80;8.20;;;;;;;11.67;100.00;100523.93;105045;1261;69176;-60
2023/10/11 03:50:57;;;;;;;11.70;9.00;;;;;;;11.62;100.00;100524.66;105055;1264;74952;-60
2023/10/11 03:53:25;;;;;;;13.90;9.40;;;;;;;11.56;100.00;100515.42;105022;1262;81447;-60
2023/10/11 03:55:54;;;;;;;12.80;10.00;;;;;;;11.56;100.00;100511.59;105001;1260;72691;-60
2023/10/11 04:03:40;;;;;;;16.30;11.40;;;;;;;11.69;100.00;100504.07;105017;1261;73700;-60
2023/10/11 04:06:16;;;;;;;22.00;11.30;;;;;;;11.75;100.00;100503.48;105045;1260;82864;-60
2023/10/11 04:08:55;;;;;;;18.90;11.10;;;;;;;11.81;100.00;100502.34;105001;1261;73030;-60
2023/10/11 04:11:37;;;;;;;17.20;12.20;;;;;;;11.87;100.00;100498.45;105071;1261;69189;-60
2023/10/11 04:14:17;;;;;;;15.80;11.70;;;;;;;11.92;100.00;100492.51;105073;1260;69187;-60
2023/10/11 04:16:45;;;;;;;23.80;13.10;;;;;;;11.95;100.00;100490.80;105065;1259;73721;-60
2023/10/11 04:19:14;;;;;;;16.20;12.00;;;;;;;11.98;100.00;100484.19;105031;1262;81477;-60
2023/10/11 04:24:20;;;;;;;21.60;12.00;;;;;;;12.02;100.00;100481.02;105012;1262;69175;-60
2023/10/11 04:26:58;;;;;;;18.60;11.70;;;;;;;12.04;100.00;100476.41;105024;1259;69257;-60
2023/10/11 04:29:31;;;;;;;16.70;11.20;;;;;;;12.05;100.00;100477.95;105089;1260;74607;-60
2023/10/11 04:34:32;;;;;;;18.40;13.70;;;;;;;12.06;100.00;100487.70;105088;1262;71748;-60
2023/10/11 04:37:06;;;;;;;16.50;11.70;;;;;;;12.05;100.00;100484.06;105091;1260;69218;-60
2023/10/11 04:39:34;;;;;;;15.10;11.40;;;;;;;12.04;100.00;100481.46;105110;1260;69211;-60
2023/10/11 04:42:03;;;;;;;16.40;11.90;;;;;;;12.03;100.00;100476.27;105022;1261;73801;-60
2023/10/11 04:44:42;;;;;;;15.30;10.60;;;;;;;12.02;100.00;100472.61;105105;1261;81198;-60
2023/10/11 04:47:11;;;;;;;17.00;10.90;;;;;;;12.02;100.00;100471.22;105089;1260;72023;-60
2023/10/11 04:49:43;;;;;;;16.30;12.50;;;;;;;12.00;100.00;100471.65;105084;1257;69112;-60
2023/10/11 04:52:22;;;;;;;16.10;11.10;;;;;;;11.99;100.00;100469.63;105069;1260;69125;-60
2023/10/11 04:54:55;;;;;;;18.30;12.00;;;;;;;11.98;100.00;100467.05;105069;1261;73687;-60
2023/10/11 04:58:21;;;;;;;16.90;12.00;;;;;;;11.96;100.00;100462.23;105067;1261;83826;-60
2023/10/11 05:00:18;;;;;;;18.70;11.60;;;;;;;11.93;100.00;100462.50;104978;1260;70327;-60
2023/10/11 05:02:54;;;;;;;16.80;11.60;;;;;;;11.91;100.00;100461.17;105067;1260;69101;-60
2023/10/11 05:05:24;;;;;;;16.20;11.20;;;;;;;11.89;100.00;100460.59;105090;1262;69177;-60
2023/10/11 05:08:05;;;;;;;15.70;12.00;;;;;;;11.87;100.00;100459.27;105070;1260;73819;-60
2023/10/11 05:10:43;;;;;;;17.50;11.20;;;;;;;11.85;100.00;100459.50;105045;1262;82303;-60
2023/10/11 05:13:13;;;;;;;20.20;12.60;;;;;;;11.83;100.00;100459.90;105060;1262;72756;-60
2023/10/11 05:15:47;;;;;;;15.80;11.70;;;;;;;11.83;100.00;100463.58;105050;1262;69141;-60
2023/10/11 05:18:23;;;;;;;16.20;12.30;;;;;;;11.83;100.00;100461.48;105068;1262;69179;-61
2023/10/11 05:21:00;;;;;;;17.50;12.40;;;;;;;11.84;100.00;100460.89;105049;1259;73435;-61
2023/10/11 05:26:36;;;;;;;19.00;13.00;;;;;;;11.87;100.00;100459.08;105012;1262;71545;-60
2023/10/11 05:29:24;;;;;;;16.40;12.30;;;;;;;11.89;100.00;100457.61;105069;1262;69141;-60
2023/10/11 05:34:50;;;;;;;18.80;12.30;;;;;;;11.96;100.00;100457.66;105032;1259;75008;-60
2023/10/11 05:51:19;;;;;;;16.70;11.90;;;;;;;12.27;100.00;100454.04;105101;1259;82149;-59
2023/10/11 05:53:50;;;;;;;22.50;12.60;;;;;;;12.32;100.00;100450.20;105168;1260;71393;-60
2023/10/11 05:56:22;;;;;;;17.00;11.90;;;;;;;12.34;100.00;100451.29;105126;1262;69784;-60
2023/10/11 05:58:52;;;;;;;16.30;12.10;;;;;;;12.38;100.00;100449.22;105127;1260;69215;-59
2023/10/11 06:01:22;;;;;;;14.20;11.80;;;;;;;12.41;100.00;100453.63;105191;1262;73304;-61
2023/10/11 06:03:51;;;;;;;15.30;12.30;;;;;;;12.44;100.00;100452.97;105201;1260;83158;-59
2023/10/11 06:06:23;;;;;;;20.40;12.50;;;;;;;12.46;100.00;100456.20;105105;1262;73967;-59
2023/10/11 06:08:58;;;;;;;18.00;13.10;;;;;;;12.48;100.00;100457.35;105163;1262;69177;-59
2023/10/11 06:11:29;;;;;;;15.80;12.10;;;;;;;12.50;100.00;100455.51;105144;1262;69211;-59
2023/10/11 06:14:04;;;;;;;15.70;11.50;;;;;;;12.52;100.00;100451.55;105161;1260;72374;-59
2023/10/11 06:16:43;;;;;;;15.00;11.60;;;;;;;12.55;100.00;100449.52;105125;1260;82362;-60
2023/10/11 06:19:17;;;;;;;17.10;11.70;;;;;;;12.58;100.00;100446.73;105439;1259;72042;-60
2023/10/11 06:21:56;;;;;;;15.90;11.80;;;;;;;12.62;100.00;100451.27;105061;1259;69119;-60
2023/10/11 06:24:30;;;;;;;15.30;11.10;;;;;;;12.67;100.00;100445.44;105062;1259;69199;-60
2023/10/11 06:29:53;;;;;;;15.10;10.90;;;;;;;12.80;100.00;100448.91;105280;1264;81644;-59
2023/10/11 06:32:23;;;;;;;17.80;11.60;;;;;;;12.87;100.00;100449.27;105191;1263;72537;-60
2023/10/11 06:34:52;;;;;;;16.80;11.90;;;;;;;12.95;100.00;100444.21;105253;1260;69635;-59
2023/10/11 06:37:24;;;;;;;18.10;10.80;;;;;;;13.01;100.00;100440.41;105324;1260;69213;-60
2023/10/11 06:40:08;;;;;;;14.60;11.00;;;;;;;13.10;100.00;100439.80;105261;1259;74025;-60
2023/10/11 06:42:36;;;;;;;18.00;10.50;;;;;;;13.20;100.00;100439.68;105216;1260;81537;-60
2023/10/11 06:45:05;;;;;;;11.90;10.50;;;;;;;13.29;100.00;100438.58;105207;1260;73078;-60
2023/10/11 06:47:33;;;;;;;13.20;10.00;;;;;;;13.37;100.00;100439.24;105166;1260;69087;-60
2023/10/11 06:50:13;;;;;;;16.90;10.20;;;;;;;13.46;100.00;100438.33;105145;1259;69849;-61
2023/10/11 06:52:46;;;;;;;14.90;10.20;;;;;;;13.54;100.00;100439.86;105213;1261;75030;-60
2023/10/11 06:55:22;;;;;;;15.20;10.50;;;;;;;13.61;100.00;100435.65;105071;1261;80700;-60
2023/10/11 06:57:56;;;;;;;12.20;9.40;;;;;;;13.68;100.00;100439.02;105078;1260;73076;-60
2023/10/11 07:00:27;;;;;;;13.30;9.90;;;;;;;13.75;100.00;100438.46;105152;1262;69138;-60
2023/10/11 07:03:06;;;;;;;16.20;10.10;;;;;;;13.80;100.00;100437.14;105154;1262;69156;-60
2023/10/11 07:05:40;;;;;;;13.20;9.70;;;;;;;13.87;100.00;100440.70;105098;1259;72923;-59
2023/10/11 07:08:10;;;;;;;15.60;10.60;;;;;;;13.92;100.00;100440.94;105254;1260;82183;-59
2023/10/11 07:10:45;;;;;;;15.60;10.10;;;;;;;13.97;100.00;100439.27;105317;1260;73098;-59
2023/10/11 07:13:14;;;;;;;13.80;9.80;;;;;;;14.03;100.00;100436.70;105168;1259;69185;-59
2023/10/11 07:15:45;;;;;;;14.20;9.90;;;;;;;14.09;100.00;100434.47;105361;1262;69215;-59
2023/10/11 07:18:21;;;;;;;15.30;10.20;;;;;;;14.15;100.00;100439.97;105154;1259;74864;-59
2023/10/11 07:20:58;;;;;;;16.10;9.70;;;;;;;14.21;100.00;100441.77;105064;1261;82755;-59
2023/10/11 07:23:45;;;;;;;14.00;9.50;;;;;;;14.30;100.00;100442.86;105243;1262;72974;-59
2023/10/11 07:26:23;;;;;;;13.60;9.80;;;;;;;14.39;100.00;100437.35;105117;1262;69129;-59
2023/10/11 07:28:52;;;;;;;10.40;8.80;;;;;;;14.48;100.00;100433.50;105183;1262;69167;-59
2023/10/11 07:31:32;;;;;;;11.60;8.40;;;;;;;14.57;100.00;100429.02;105454;1260;74769;-60
2023/10/11 07:34:09;;;;;;;13.10;9.10;;;;;;;14.70;100.00;100430.80;105372;1259;80733;-59
2023/10/11 07:36:39;;;;;;;12.50;8.00;;;;;;;14.82;100.00;100428.58;105208;1259;72192;-59
2023/10/11 07:39:15;;;;;;;10.90;7.70;;;;;;;14.96;100.00;100431.15;105164;1259;69307;-59
2023/10/11 07:41:44;;;;;;;13.80;8.20;;;;;;;15.12;100.00;100429.38;105156;1262;69192;-59
2023/10/11 07:44:12;;;;;;;11.50;7.70;;;;;;;15.25;100.00;100428.10;105147;1259;73907;-59
2023/10/11 07:46:41;;;;;;;10.40;7.30;;;;;;;15.41;100.00;100431.48;105219;1259;82440;-58
2023/10/11 07:49:16;;;;;;;13.40;7.50;;;;;;;15.55;100.00;100429.96;105180;1259;71977;-60
2023/10/11 07:51:45;;;;;;;10.30;7.10;;;;;;;15.69;100.00;100425.66;105170;1262;69147;-59
2023/10/11 07:54:19;;;;;;;9.40;7.40;;;;;;;15.83;100.00;100422.75;105118;1262;69198;-58
2023/10/11 07:56:57;;;;;;;9.60;6.90;;;;;;;15.96;100.00;100419.71;105138;1260;74966;-59
2023/10/11 07:59:26;;;;;;;11.30;7.20;;;;;;;16.08;100.00;100422.11;105150;1259;81743;-60
2023/10/11 08:01:56;;;;;;;11.90;6.60;;;;;;;16.23;100.00;100419.10;105198;1259;71908;-60
2023/10/11 08:04:28;;;;;;;10.60;6.50;;;;;;;16.38;100.00;100417.86;105402;1258;69222;-60
2023/10/11 08:07:02;;;;;;;11.80;6.70;;;;;;;16.55;100.00;100416.64;105070;1259;69160;-60
2023/10/11 08:09:45;;;;;;;9.40;6.20;;;;;;;16.73;100.00;100418.17;105136;1262;75089;-60
2023/10/11 08:12:18;;;;;;;9.60;5.70;;;;;;;16.89;100.00;100416.84;105195;1262;82588;-60
2023/10/11 08:14:48;;;;;;;7.90;6.30;;;;;;;17.06;100.00;100409.40;105205;1259;71716;-60
2023/10/11 08:17:19;;;;;;;11.00;5.40;;;;;;;17.24;100.00;100407.94;105315;1260;69686;-59
2023/10/11 08:19:53;;;;;;;12.40;6.10;;;;;;;17.41;100.00;100406.30;105088;1262;69184;-59
2023/10/11 08:22:22;;;;;;;14.70;6.00;;;;;;;17.59;100.00;100402.11;105231;1260;74081;-60
2023/10/11 08:24:56;;;;;;;9.20;5.80;;;;;;;17.72;100.00;100397.50;105156;1262;81725;-60
2023/10/11 08:27:28;;;;;;;9.50;5.20;;;;;;;17.87;100.00;100397.97;105207;1259;71977;-60
2023/10/11 08:32:42;;;;;;;11.80;5.20;;;;;;;18.14;100.00;100391.02;105198;1259;69175;-59
2023/10/11 08:35:16;;;;;;;9.80;5.50;;;;;;;18.27;100.00;100392.95;105298;1262;73987;-59
2023/10/11 08:37:45;;;;;;;9.40;5.10;;;;;;;18.38;100.00;100394.45;105133;1260;82822;-59
2023/10/11 08:40:34;;;;;;;11.10;5.10;;;;;;;18.49;99.94;100392.09;105249;1260;70612;-60
2023/10/11 08:43:04;;;;;;;10.30;5.80;;;;;;;18.60;99.38;100393.83;105080;1262;69164;-61
2023/10/11 08:45:47;;;;;;;11.10;6.30;;;;;;;18.65;98.51;100393.95;105067;1262;69209;-60
2023/10/11 08:48:17;;;;;;;11.20;4.40;;;;;;;18.69;97.97;100390.67;105017;1260;72824;-61
2023/10/11 08:50:53;;;;;;;10.70;5.40;;;;;;;18.76;97.53;100384.23;105102;1259;80683;-60
2023/10/11 08:53:24;;;;;;;11.70;5.90;;;;;;;18.83;97.13;100386.69;105079;1262;71644;-60
2023/10/11 08:55:59;;;;;;;7.80;5.30;;;;;;;18.91;96.66;100390.73;105046;1260;69197;-60
2023/10/11 08:58:28;;;;;;;7.80;5.10;;;;;;;19.00;96.45;100394.91;105088;1262;69200;-60
2023/10/11 09:00:59;;;;;;;9.00;5.30;;;;;;;19.10;96.30;100397.16;105097;1262;74144;-60
2023/10/11 09:03:31;;;;;;;7.40;4.60;;;;;;;19.20;95.87;100400.67;105080;1260;81895;-60
2023/10/11 09:06:01;;;;;;;7.50;4.80;;;;;;;19.29;95.52;100403.19;105081;1260;73244;-61
2023/10/11 09:08:31;;;;;;;9.00;5.10;;;;;;;19.38;95.17;100398.68;105089;1261;69119;-60
2023/10/11 09:11:31;;;;;;;14.10;6.40;;;;;;;19.43;94.45;100402.93;105080;1261;69069;-60
2023/10/11 09:14:10;;;;;;;11.00;5.50;;;;;;;19.49;94.00;100405.09;105134;1262;73792;-60
2023/10/11 09:16:41;;;;;;;15.60;5.80;;;;;;;19.55;93.64;100409.26;105090;1262;82748;-60
2023/10/11 09:19:11;;;;;;;13.50;5.60;;;;;;;19.61;93.09;100413.43;105064;1260;71972;-60
2023/10/11 09:21:42;;;;;;;10.40;5.70;;;;;;;19.68;92.59;100408.30;105107;1259;69145;-60
2023/10/11 09:24:26;;;;;;;11.00;5.20;;;;;;;19.78;92.27;100403.51;105082;1262;69199;-60
2023/10/11 09:29:50;;;;;;;10.70;5.50;;;;;;;20.10;91.57;100402.47;105106;1262;82873;-60
2023/10/11 09:32:19;;;;;;;11.00;5.20;;;;;;;20.31;91.31;100397.16;105053;1262;73332;-60
2023/10/11 09:34:51;;;;;;;11.00;5.10;;;;;;;20.52;91.09;100399.39;105119;1259;69276;-60
2023/10/11 09:37:20;;;;;;;10.30;5.00;;;;;;;20.69;90.29;100403.02;105098;1262;69183;-59
2023/10/11 09:39:52;;;;;;;;;;;;;;;20.80;89.61;100402.92;105102;1259;74019;-60
2023/10/11 09:42:22;;;;;;;10.60;4.60;;;;;;;20.88;88.68;100406.20;105030;1263;81768;-60
2023/10/11 09:44:57;;;;;;;8.20;4.30;;;;;;;20.96;87.63;100405.55;105040;1259;71785;-60
2023/10/11 09:47:31;;;;;;;10.80;4.90;;;;;;;21.03;87.09;100409.79;105083;1262;69218;-60
2023/10/11 09:50:00;;;;;;;10.80;5.00;;;;;;;21.05;86.19;100410.31;105115;1260;69647;-60
2023/10/11 09:52:29;;;;;;;7.40;4.70;;;;;;;21.02;85.08;100412.89;105097;1259;74943;-60
2023/10/11 09:54:59;;;;;;;11.30;4.90;;;;;;;20.97;84.50;100414.34;105127;1262;81019;-61
2023/10/11 09:57:35;;;;;;;10.30;4.60;;;;;;;20.91;84.11;100412.45;104987;1259;72033;-62
2023/10/11 10:00:25;;;;;;;9.00;4.60;;;;;;;20.86;83.52;100406.66;105041;1259;69126;-61
2023/10/11 10:02:54;;;;;;;14.20;4.80;;;;;;;20.85;82.88;100406.25;105107;1262;69132;-61
2023/10/11 10:05:23;;;;;;;9.00;4.60;;;;;;;20.87;82.37;100403.90;105102;1262;74349;-61
2023/10/11 10:07:51;;;;;;;13.60;4.50;;;;;;;21.00;81.86;100400.28;105081;1261;82562;-61
2023/10/11 10:10:25;;;;;;;8.50;4.80;;;;;;;21.10;81.44;100410.98;105004;1260;73005;-61
2023/10/11 10:12:54;;;;;;;9.50;4.30;;;;;;;21.17;81.12;100401.55;105032;1262;69161;-61
2023/10/11 10:15:23;;;;;;;10.10;4.50;;;;;;;21.22;80.44;100400.80;105059;1262;69199;-61
2023/10/11 10:18:01;;;;;;;8.30;4.60;;;;;;;21.29;79.95;100400.58;105124;1260;72633;-61
2023/10/11 10:20:42;;;;;;;11.50;4.60;;;;;;;21.37;79.54;100398.34;105076;1260;83134;-61
2023/10/11 10:23:13;;;;;;;11.10;5.00;;;;;;;21.46;78.81;100397.36;105055;1260;72916;-60
2023/10/11 10:25:48;;;;;;;9.80;4.70;;;;;;;21.64;78.26;100393.21;105109;1262;69108;-60
2023/10/11 10:29:07;;;;;;;13.00;4.50;;;;;;;21.75;77.61;100396.56;105071;1262;69343;-60
2023/10/11 10:31:26;;;;;;;7.50;4.60;;;;;;;22.01;77.13;100395.67;105040;1259;75055;-60
2023/10/11 10:34:05;;;;;;;11.80;4.40;;;;;;;22.20;76.91;100388.84;105099;1262;82992;-60
2023/10/11 10:36:34;;;;;;;9.00;4.70;;;;;;;22.31;76.29;100386.15;105098;1259;71298;-60
2023/10/11 10:41:44;;;;;;;12.20;4.80;;;;;;;22.64;75.11;100375.08;105006;1262;69735;-60
2023/10/11 10:44:17;;;;;;;7.40;4.50;;;;;;;22.77;74.33;100375.17;105014;1258;73691;-60
2023/10/11 10:46:53;;;;;;;9.50;4.80;;;;;;;22.86;73.85;100374.22;105009;1260;81752;-60
2023/10/11 10:49:40;;;;;;;10.60;4.90;;;;;;;22.97;72.88;100378.80;105098;1258;72039;-60
2023/10/11 10:52:21;;;;;;;10.40;4.50;;;;;;;23.10;72.16;100372.83;105063;1259;69271;-60
2023/10/11 10:55:04;;;;;;;13.40;4.90;;;;;;;23.17;71.78;100376.27;105047;1260;69151;-60
2023/10/11 10:57:36;;;;;;;7.60;4.50;;;;;;;23.11;70.54;100367.33;105105;1260;74173;-60
2023/10/11 11:00:07;;;;;;;12.30;4.90;;;;;;;23.11;70.31;100365.45;105101;1260;81676;-60
2023/10/11 11:02:36;;;;;;;8.70;4.20;;;;;;;23.17;69.61;100362.72;105049;1258;71912;-60
2023/10/11 11:05:14;;;;;;;7.20;4.60;;;;;;;23.23;68.89;100359.13;105137;1257;70824;-60
2023/10/11 11:07:49;;;;;;;9.20;4.40;;;;;;;23.38;67.59;100353.54;105087;1260;69219;-60
2023/10/11 11:10:21;;;;;;;13.70;4.70;;;;;;;23.63;67.65;100345.85;105102;1259;75095;-60
2023/10/11 11:12:50;;;;;;;10.70;5.10;;;;;;;23.80;66.92;100346.04;105060;1262;82872;-60
2023/10/11 11:15:21;;;;;;;7.10;4.30;;;;;;;23.90;66.18;100336.42;105103;1260;73102;-60
2023/10/11 11:17:51;;;;;;;7.30;4.60;;;;;;;24.04;66.04;100331.34;105041;1260;69272;-60
2023/10/11 11:20:31;;;;;;;8.60;4.70;;;;;;;24.15;64.81;100336.17;105128;1260;69195;-60
2023/10/11 11:22:59;;;;;;;8.70;4.40;;;;;;;24.26;64.54;100324.19;105095;1260;74046;-60
2023/10/11 11:25:28;;;;;;;10.30;4.90;;;;;;;24.43;64.49;100325.08;105081;1262;82900;-60
2023/10/11 11:28:26;;;;;;;9.80;4.80;;;;;;;24.59;64.11;100323.04;105044;1260;72924;-60
2023/10/11 11:30:57;;;;;;;11.80;4.50;;;;;;;24.73;63.72;100319.39;105038;1262;69170;-60
2023/10/11 11:33:34;;;;;;;9.90;5.00;;;;;;;24.75;62.30;100310.42;105072;1260;69157;-60
2023/10/11 11:36:10;;;;;;;7.30;4.20;;;;;;;24.78;62.13;100317.20;105091;1262;75499;-60
2023/10/11 11:38:48;;;;;;;7.40;4.30;;;;;;;24.82;61.76;100317.61;105080;1259;83799;-60
2023/10/11 11:41:17;;;;;;;8.70;4.80;;;;;;;24.91;61.38;100313.80;105031;1262;72977;-60
2023/10/11 11:43:48;;;;;;;7.60;4.00;;;;;;;24.90;59.79;100314.63;104674;1265;69172;-60
2023/10/11 11:46:17;;;;;;;9.30;4.30;;;;;;;24.91;58.49;100312.38;104658;1271;69193;-60
2023/10/11 11:48:45;;;;;;;9.20;4.90;;;;;;;24.94;58.54;100314.76;104692;1265;75316;-60
2023/10/11 11:51:14;;;;;;;9.30;4.30;;;;;;;25.00;58.23;100317.80;104649;1269;81819;-60
2023/10/11 11:53:44;;;;;;;12.00;4.80;;;;;;;25.05;57.87;100320.70;104665;1265;73203;-60
2023/10/11 11:56:12;;;;;;;7.50;4.20;;;;;;;25.17;57.63;100319.89;104713;1266;69264;-59
2023/10/11 11:58:49;;;;;;;7.20;3.70;;;;;;;25.32;57.64;100314.59;104697;1266;69184;-60
2023/10/11 12:01:19;;;;;;;9.90;4.60;;;;;;;25.52;57.05;100311.97;104737;1260;74852;-60
2023/10/11 12:03:54;;;;;;;9.90;4.30;;;;;;;25.60;56.48;100308.31;105069;1259;81850;-61
2023/10/11 12:06:23;;;;;;;11.00;4.00;;;;;;;25.71;56.44;100303.61;105075;1259;73200;-60
2023/10/11 12:08:57;;;;;;;9.40;4.70;;;;;;;25.93;56.59;100299.50;105088;1259;69186;-60